createdAt,value
2023-04-15T00:01:07.760Z,0.60
2023-04-15T00:03:34.522Z,1.05
2023-04-15T00:06:02.338Z,0.90
2023-04-15T00:08:30.054Z,1.00
2023-04-15T00:10:56.690Z,0.80
2023-04-15T00:13:23.546Z,1.00
2023-04-15T00:15:51.074Z,0.60
2023-04-15T00:18:18.610Z,0.70
2023-04-15T00:20:45.055Z,0.60
2023-04-15T00:23:12.604Z,0.90
2023-04-15T00:25:39.244Z,0.68
2023-04-15T00:30:32.651Z,0.90
2023-04-15T00:32:59.405Z,0.93
2023-04-15T00:35:25.833Z,1.30
2023-04-15T00:37:52.554Z,1.00
2023-04-15T00:40:21.723Z,1.23
2023-04-15T00:42:48.646Z,0.88
2023-04-15T00:45:15.681Z,0.98
2023-04-15T00:47:43.807Z,1.13
2023-04-15T00:50:12.519Z,0.88
2023-04-15T00:52:40.918Z,1.15
2023-04-15T00:55:08.875Z,0.90
2023-04-15T00:57:36.403Z,0.90
2023-04-15T01:00:05.601Z,0.80
2023-04-15T01:02:33.458Z,1.00
2023-04-15T01:05:00.463Z,0.60
2023-04-15T01:07:27.047Z,0.80
2023-04-15T01:09:53.757Z,0.90
2023-04-15T01:12:21.119Z,0.70
2023-04-15T01:14:47.676Z,1.10
2023-04-15T01:17:14.468Z,1.08
2023-04-15T01:22:10.038Z,0.90
2023-04-15T01:24:36.935Z,0.65
2023-04-15T01:29:38.485Z,0.73
2023-04-15T01:32:05.647Z,0.80
2023-04-15T01:34:35.514Z,1.13
2023-04-15T01:37:02.746Z,1.02
2023-04-15T01:39:29.416Z,0.55
2023-04-15T01:41:57.213Z,0.95
2023-04-15T01:44:23.612Z,0.90
2023-04-15T01:46:50.196Z,0.90
2023-04-15T01:49:16.935Z,1.00
2023-04-15T01:51:43.734Z,0.90
2023-04-15T01:54:10.225Z,0.70
2023-04-15T01:56:36.853Z,0.80
2023-04-15T01:59:03.803Z,1.10
2023-04-15T02:01:30.408Z,0.90
2023-04-15T02:03:57.889Z,0.88
2023-04-15T02:06:24.639Z,1.00
2023-04-15T02:08:51.452Z,0.80
2023-04-15T02:13:46.328Z,0.70
2023-04-15T02:16:17.735Z,1.10
2023-04-15T02:18:47.424Z,0.90
2023-04-15T02:21:14.588Z,0.82
2023-04-15T02:23:41.098Z,0.90
2023-04-15T02:26:08.123Z,0.90
2023-04-15T02:28:35.023Z,0.90
2023-04-15T02:31:09.479Z,0.80
2023-04-15T02:33:36.934Z,0.90
2023-04-15T02:36:03.980Z,1.15
2023-04-15T02:38:31.884Z,0.90
2023-04-15T02:40:58.361Z,0.93
2023-04-15T02:43:24.843Z,0.93
2023-04-15T02:45:52.160Z,0.85
2023-04-15T02:48:20.259Z,0.80
2023-04-15T02:50:48.315Z,1.20
2023-04-15T02:53:14.803Z,0.90
2023-04-15T02:55:42.784Z,1.02
2023-04-15T02:58:09.618Z,0.80
2023-04-15T03:00:36.176Z,0.90
2023-04-15T03:03:05.961Z,0.93
2023-04-15T03:05:32.873Z,1.20
2023-04-15T03:08:01.024Z,1.13
2023-04-15T03:10:27.752Z,0.80
2023-04-15T03:15:21.253Z,1.20
2023-04-15T03:17:49.638Z,0.82
2023-04-15T03:20:17.163Z,1.08
2023-04-15T03:22:44.299Z,0.80
2023-04-15T03:25:10.775Z,0.90
2023-04-15T03:27:38.802Z,1.10
2023-04-15T03:30:07.564Z,1.05
2023-04-15T03:32:34.573Z,0.80
2023-04-15T03:35:01.525Z,0.60
2023-04-15T03:37:28.098Z,0.77
2023-04-15T03:39:54.735Z,1.30
2023-04-15T03:42:21.254Z,1.17
2023-04-15T03:44:47.768Z,1.40
2023-04-15T03:47:14.266Z,1.30
2023-04-15T03:49:41.373Z,1.00
2023-04-15T03:52:07.723Z,0.88
2023-04-15T03:54:34.355Z,1.40
2023-04-15T03:57:01.399Z,1.30
2023-04-15T03:59:28.372Z,1.25
2023-04-15T04:01:54.934Z,1.08
2023-04-15T04:04:21.676Z,1.00
2023-04-15T04:06:48.141Z,1.60
2023-04-15T04:09:14.995Z,1.17
2023-04-15T04:11:41.770Z,1.02
2023-04-15T04:14:08.291Z,1.20
2023-04-15T04:16:35.086Z,1.20
2023-04-15T04:19:01.997Z,1.13
2023-04-15T04:21:29.142Z,1.10
2023-04-15T04:23:56.665Z,1.10
2023-04-15T04:26:23.107Z,1.33
2023-04-15T04:28:49.500Z,1.02
2023-04-15T04:31:16.095Z,1.00
2023-04-15T04:33:43.501Z,1.02
2023-04-15T04:38:37.636Z,1.23
2023-04-15T04:41:04.225Z,1.20
2023-04-15T04:45:57.596Z,1.40
2023-04-15T04:48:24.360Z,1.00
2023-04-15T04:50:51.356Z,1.00
2023-04-15T04:53:18.162Z,1.33
2023-04-15T04:55:44.720Z,1.10
2023-04-15T04:58:11.592Z,1.33
2023-04-15T05:03:05.684Z,1.27
2023-04-15T05:05:32.332Z,1.50
2023-04-15T05:07:59.350Z,1.10
2023-04-15T05:10:26.217Z,1.15
2023-04-15T05:12:53.049Z,1.30
2023-04-15T05:15:19.965Z,1.08
2023-04-15T05:17:46.594Z,1.48
2023-04-15T05:20:14.317Z,1.50
2023-04-15T05:22:41.594Z,1.42
2023-04-15T05:25:09.274Z,1.73
2023-04-15T05:27:36.676Z,1.63
2023-04-15T05:30:03.588Z,1.50
2023-04-15T05:32:30.005Z,1.30
2023-04-15T05:34:56.771Z,1.52
2023-04-15T05:37:24.937Z,1.42
2023-04-15T05:39:52.019Z,1.13
2023-04-15T05:44:45.650Z,1.52
2023-04-15T05:47:14.199Z,1.85
2023-04-15T05:49:41.274Z,1.67
2023-04-15T05:52:08.224Z,2.00
2023-04-15T05:54:35.141Z,2.40
2023-04-15T05:57:01.711Z,2.03
2023-04-15T05:59:28.612Z,2.28
2023-04-15T06:01:55.360Z,2.40
2023-04-15T06:04:22.826Z,2.83
2023-04-15T06:06:50.210Z,2.00
2023-04-15T06:09:17.707Z,2.28
2023-04-15T06:11:44.281Z,2.22
2023-04-15T06:14:11.159Z,2.00
2023-04-15T06:16:37.864Z,1.80
2023-04-15T06:19:05.083Z,1.60
2023-04-15T06:21:31.854Z,1.67
2023-04-15T06:26:26.572Z,2.10
2023-04-15T06:28:53.255Z,2.03
2023-04-15T06:31:19.685Z,1.80
2023-04-15T06:33:46.602Z,1.95
2023-04-15T06:36:13.615Z,1.58
2023-04-15T06:38:40.128Z,1.90
2023-04-15T06:41:06.765Z,1.60
2023-04-15T06:43:33.309Z,1.73
2023-04-15T06:45:59.915Z,1.70
2023-04-15T06:48:27.544Z,2.00
2023-04-15T06:50:54.950Z,1.60
2023-04-15T06:53:22.083Z,1.55
2023-04-15T06:55:49.539Z,2.00
2023-04-15T06:58:16.218Z,1.75
2023-04-15T07:00:42.892Z,1.70
2023-04-15T07:03:11.161Z,1.70
2023-04-15T07:05:38.460Z,1.60
2023-04-15T07:10:32.589Z,1.83
2023-04-15T07:12:59.653Z,1.70
2023-04-15T07:15:26.099Z,1.70
2023-04-15T07:17:54.357Z,1.83
2023-04-15T07:20:21.976Z,2.00
2023-04-15T07:25:15.804Z,1.60
2023-04-15T07:30:09.807Z,1.70
2023-04-15T07:32:36.972Z,1.92
2023-04-15T07:35:04.258Z,1.70
2023-04-15T07:37:30.786Z,1.48
2023-04-15T07:39:58.858Z,1.90
2023-04-15T07:42:25.525Z,1.80
2023-04-15T07:44:52.013Z,1.95
2023-04-15T07:47:18.826Z,2.33
2023-04-15T07:49:46.295Z,2.03
2023-04-15T07:54:39.793Z,2.08
2023-04-15T07:57:06.540Z,1.83
2023-04-15T07:59:33.546Z,1.90
2023-04-15T08:02:01.690Z,2.25
2023-04-15T08:04:28.660Z,1.92
2023-04-15T08:09:21.965Z,2.50
2023-04-15T08:11:50.700Z,2.40
2023-04-15T08:14:18.017Z,2.55
2023-04-15T08:16:44.556Z,3.35
2023-04-15T08:19:11.298Z,2.17
2023-04-15T08:21:38.598Z,2.20
2023-04-15T08:26:32.589Z,2.70
2023-04-15T08:28:59.463Z,2.60
2023-04-15T08:31:28.939Z,2.70
2023-04-15T08:33:57.607Z,2.75
2023-04-15T08:36:24.110Z,2.75
2023-04-15T08:38:51.155Z,2.20
2023-04-15T08:41:25.674Z,2.13
2023-04-15T08:44:01.974Z,2.08
2023-04-15T08:46:31.971Z,2.20
2023-04-15T08:48:59.148Z,1.95
2023-04-15T08:53:54.819Z,2.83
2023-04-15T08:56:26.697Z,3.03
2023-04-15T08:58:53.923Z,3.20
2023-04-15T09:03:50.293Z,3.58
2023-04-15T09:06:18.141Z,3.58
2023-04-15T09:08:45.741Z,3.70
2023-04-15T09:11:12.490Z,3.28
2023-04-15T09:13:39.839Z,2.92
2023-04-15T09:16:08.091Z,3.90
2023-04-15T09:18:36.281Z,2.83
2023-04-15T09:21:08.793Z,3.10
2023-04-15T09:23:36.150Z,3.47
2023-04-15T09:26:03.704Z,2.20
2023-04-15T09:28:31.104Z,2.85
2023-04-15T09:30:59.339Z,2.45
2023-04-15T09:33:28.041Z,2.17
2023-04-15T09:35:59.290Z,1.95
2023-04-15T09:38:26.157Z,1.40
2023-04-15T09:43:22.909Z,1.13
2023-04-15T09:45:52.368Z,1.17
2023-04-15T09:48:28.931Z,1.42
2023-04-15T09:50:58.985Z,1.00
2023-04-15T09:53:29.834Z,0.88
2023-04-15T09:56:02.838Z,0.73
2023-04-15T09:58:31.867Z,0.60
2023-04-15T10:01:00.114Z,0.60
2023-04-15T10:03:30.125Z,0.77
2023-04-15T10:05:59.306Z,0.60
2023-04-15T10:08:33.608Z,0.60
2023-04-15T10:11:02.520Z,0.70
2023-04-15T10:13:36.974Z,0.65
2023-04-15T10:16:16.893Z,0.52
2023-04-15T10:18:46.157Z,0.60
2023-04-15T10:21:18.510Z,0.60
2023-04-15T10:23:46.006Z,0.73
2023-04-15T10:26:14.741Z,0.63
2023-04-15T10:28:42.088Z,0.82
2023-04-15T10:31:11.689Z,0.82
2023-04-15T10:33:39.780Z,0.77
2023-04-15T10:36:07.927Z,0.80
2023-04-15T10:38:45.941Z,1.20
2023-04-15T10:41:27.954Z,0.88
2023-04-15T10:43:57.719Z,0.90
2023-04-15T10:46:36.971Z,0.95
2023-04-15T10:49:15.120Z,0.35
2023-04-15T10:51:47.292Z,0.68
2023-04-15T10:54:18.520Z,0.30
2023-04-15T10:56:46.007Z,1.15
2023-04-15T10:59:12.604Z,1.40
2023-04-15T11:01:57.403Z,1.08
2023-04-15T11:07:10.910Z,1.10
2023-04-15T11:09:37.520Z,1.23
2023-04-15T11:14:41.943Z,1.02
2023-04-15T11:17:09.664Z,0.77
2023-04-15T11:19:39.462Z,0.70
2023-04-15T11:22:10.166Z,0.70
2023-04-15T11:24:37.104Z,0.90
2023-04-15T11:27:03.796Z,1.08
2023-04-15T11:29:32.133Z,0.68
2023-04-15T11:32:06.298Z,0.80
2023-04-15T11:34:34.996Z,0.82
2023-04-15T11:37:06.701Z,1.08
2023-04-15T11:39:33.610Z,1.20
2023-04-15T11:42:01.797Z,1.20
2023-04-15T11:44:28.515Z,2.13
2023-04-15T11:46:56.593Z,1.70
2023-04-15T11:49:31.218Z,1.80
2023-04-15T11:51:58.008Z,2.10
2023-04-15T11:54:25.084Z,1.90
2023-04-15T11:59:18.970Z,1.55
2023-04-15T12:01:47.640Z,1.58
2023-04-15T12:04:18.330Z,1.83
2023-04-15T12:06:46.152Z,2.22
2023-04-15T12:09:14.318Z,1.80
2023-04-15T12:11:51.313Z,1.92
2023-04-15T12:14:31.223Z,1.85
2023-04-15T12:17:00.546Z,1.33
2023-04-15T12:19:43.019Z,2.22
2023-04-15T12:22:11.711Z,2.28
2023-04-15T12:24:39.434Z,1.85
2023-04-15T12:27:12.424Z,1.80
2023-04-15T12:29:40.547Z,1.55
2023-04-15T12:32:08.521Z,1.85
2023-04-15T12:34:39.173Z,2.00
2023-04-15T12:37:09.406Z,1.42
2023-04-15T12:39:38.027Z,1.63
2023-04-15T12:42:06.069Z,1.35
2023-04-15T12:44:33.478Z,2.10
2023-04-15T12:47:00.472Z,1.80
2023-04-15T12:49:28.374Z,1.40
2023-04-15T12:51:57.822Z,1.58
2023-04-15T12:54:24.354Z,1.30
2023-04-15T12:56:51.597Z,1.50
2023-04-15T12:59:19.968Z,1.90
2023-04-15T13:01:48.799Z,1.85
2023-04-15T13:04:17.043Z,1.75
2023-04-15T13:06:44.040Z,1.55
2023-04-15T13:09:10.771Z,2.05
2023-04-15T13:11:37.560Z,1.50
2023-04-15T13:14:06.376Z,1.92
2023-04-15T13:16:34.831Z,2.30
2023-04-15T13:19:02.629Z,2.13
2023-04-15T13:21:29.325Z,1.52
2023-04-15T13:26:24.070Z,2.00
2023-04-15T13:31:18.327Z,1.70
2023-04-15T13:33:45.478Z,1.98
2023-04-15T13:38:38.841Z,2.03
2023-04-15T13:41:05.531Z,1.80
2023-04-15T13:43:34.216Z,1.80
2023-04-15T13:46:01.795Z,2.35
2023-04-15T13:48:28.839Z,4.07
2023-04-15T13:50:55.732Z,2.35
2023-04-15T13:53:33.964Z,2.58
2023-04-15T13:56:08.855Z,2.85
2023-04-15T13:58:38.116Z,2.45
2023-04-15T14:01:06.772Z,2.75
2023-04-15T14:03:37.623Z,2.20
2023-04-15T14:06:06.039Z,2.53
2023-04-15T14:08:33.322Z,3.70
2023-04-15T14:10:59.997Z,6.05
2023-04-15T14:13:26.768Z,3.50
2023-04-15T14:15:53.392Z,3.20
2023-04-15T14:18:20.583Z,2.88
2023-04-15T14:20:49.151Z,3.38
2023-04-15T14:23:16.626Z,3.55
2023-04-15T14:25:44.183Z,3.38
2023-04-15T14:28:12.401Z,4.05
2023-04-15T14:30:39.493Z,4.47
2023-04-15T14:33:06.146Z,4.30
2023-04-15T14:35:33.236Z,4.05
2023-04-15T14:40:26.698Z,4.70
2023-04-15T14:42:53.675Z,4.68
2023-04-15T14:47:47.516Z,4.60
2023-04-15T14:50:14.496Z,4.97
2023-04-15T14:52:41.671Z,5.10
2023-04-15T14:55:12.529Z,5.70
2023-04-15T14:57:40.435Z,5.15
2023-04-15T15:00:10.024Z,5.80
2023-04-15T15:02:40.481Z,5.47
2023-04-15T15:05:09.708Z,5.78
2023-04-15T15:07:37.988Z,5.10
2023-04-15T15:10:06.022Z,5.18
2023-04-15T15:12:33.634Z,5.53
2023-04-15T15:15:01.599Z,45.15
2023-04-15T15:17:29.886Z,5.35
2023-04-15T15:19:56.603Z,5.50
2023-04-15T15:22:24.567Z,5.53
2023-04-15T15:24:51.208Z,5.05
2023-04-15T15:27:18.068Z,5.80
2023-04-15T15:29:44.718Z,4.88
2023-04-15T15:32:11.355Z,4.85
2023-04-15T15:34:38.020Z,4.70
2023-04-15T15:37:04.663Z,5.55
2023-04-15T15:39:31.252Z,4.85
2023-04-15T15:41:57.811Z,4.60
2023-04-15T15:46:51.308Z,4.55
2023-04-15T15:51:45.773Z,5.07
2023-04-15T15:54:12.497Z,4.82
2023-04-15T15:59:06.700Z,4.65
2023-04-15T16:01:33.642Z,4.70
2023-04-15T16:04:00.819Z,4.80
2023-04-15T16:06:28.110Z,4.57
2023-04-15T16:08:54.871Z,4.85
2023-04-15T16:11:21.347Z,5.28
2023-04-15T16:13:48.440Z,4.80
2023-04-15T16:16:15.206Z,5.43
2023-04-15T16:18:42.445Z,5.28
2023-04-15T16:21:09.036Z,4.75
2023-04-15T16:23:36.784Z,4.53
2023-04-15T16:26:04.909Z,4.43
2023-04-15T16:30:58.667Z,3.80
2023-04-15T16:35:53.414Z,3.90
2023-04-15T16:38:20.758Z,4.10
2023-04-15T16:40:47.402Z,3.88
2023-04-15T16:43:15.931Z,3.88
2023-04-15T16:45:44.433Z,3.63
2023-04-15T16:48:10.970Z,3.63
2023-04-15T16:50:37.711Z,4.15
2023-04-15T16:53:04.739Z,4.57
2023-04-15T16:55:31.280Z,5.35
2023-04-15T16:58:02.473Z,4.45
2023-04-15T17:00:31.370Z,4.72
2023-04-15T17:03:00.071Z,4.32
2023-04-15T17:05:27.556Z,5.25
2023-04-15T17:07:54.699Z,3.42
2023-04-15T17:12:48.167Z,4.70
2023-04-15T17:15:14.744Z,5.20
2023-04-15T17:17:41.657Z,5.30
2023-04-15T17:20:09.443Z,5.40
2023-04-15T17:22:36.512Z,5.03
2023-04-15T17:25:04.569Z,5.40
2023-04-15T17:27:31.246Z,4.90
2023-04-15T17:29:58.013Z,4.70
2023-04-15T17:32:26.398Z,4.35
2023-04-15T17:34:53.014Z,4.93
2023-04-15T17:37:19.541Z,4.60
2023-04-15T17:39:46.441Z,5.07
2023-04-15T17:42:13.647Z,4.35
2023-04-15T17:44:40.154Z,5.43
2023-04-15T17:47:07.965Z,5.00
2023-04-15T17:49:37.628Z,5.00
2023-04-15T17:52:04.608Z,4.53
2023-04-15T17:54:31.136Z,5.35
2023-04-15T17:56:59.234Z,4.95
2023-04-15T17:59:27.565Z,5.00
2023-04-15T18:01:55.707Z,4.60
2023-04-15T18:04:26.355Z,4.70
2023-04-15T18:06:53.568Z,4.57
2023-04-15T18:09:21.625Z,4.95
2023-04-15T18:11:49.415Z,5.07
2023-04-15T18:14:27.058Z,4.70
2023-04-15T18:17:00.720Z,5.25
2023-04-15T18:19:27.705Z,5.57
2023-04-15T18:21:55.061Z,6.03
2023-04-15T18:24:22.548Z,5.97
2023-04-15T18:26:49.565Z,5.95
2023-04-15T18:29:18.186Z,5.35
2023-04-15T18:31:45.234Z,5.82
2023-04-15T18:34:11.870Z,5.50
2023-04-15T18:36:38.949Z,5.03
2023-04-15T18:39:05.713Z,5.32
2023-04-15T18:43:58.971Z,5.97
2023-04-15T18:46:25.799Z,6.15
2023-04-15T18:48:52.809Z,6.82
2023-04-15T18:51:19.643Z,6.70
2023-04-15T18:53:46.470Z,7.38
2023-04-15T18:56:13.520Z,8.27
2023-04-15T18:59:19.001Z,9.50
2023-04-15T19:01:26.775Z,9.70
2023-04-15T19:03:53.551Z,9.45
2023-04-15T19:06:22.275Z,9.55
2023-04-15T19:08:49.365Z,10.15
2023-04-15T19:11:16.051Z,10.15
2023-04-15T19:13:43.380Z,11.05
2023-04-15T19:16:10.123Z,9.80
2023-04-15T19:18:36.829Z,9.85
2023-04-15T19:21:03.988Z,10.43
2023-04-15T19:23:31.779Z,9.57
2023-04-15T19:25:59.135Z,9.52
2023-04-15T19:28:28.068Z,11.13
2023-04-15T19:30:55.061Z,10.15
2023-04-15T19:33:21.986Z,10.65
2023-04-15T19:35:50.127Z,9.68
2023-04-15T19:38:17.216Z,9.85
2023-04-15T19:40:44.129Z,9.00
2023-04-15T19:43:10.814Z,9.15
2023-04-15T19:45:37.572Z,9.10
2023-04-15T19:48:06.086Z,8.90
2023-04-15T19:50:32.768Z,10.02
2023-04-15T19:52:59.595Z,8.65
2023-04-15T19:55:26.335Z,9.43
2023-04-15T19:57:53.140Z,10.82
2023-04-15T20:00:20.027Z,10.43
2023-04-15T20:02:46.650Z,9.07
2023-04-15T20:05:14.098Z,9.02
2023-04-15T20:07:42.475Z,8.45
2023-04-15T20:10:13.051Z,9.45
2023-04-15T20:12:51.301Z,8.05
2023-04-15T20:15:21.438Z,8.45
2023-04-15T20:17:48.013Z,9.32
2023-04-15T20:20:16.173Z,8.07
2023-04-15T20:22:43.220Z,7.85
2023-04-15T20:25:10.402Z,8.45
2023-04-15T20:30:05.062Z,10.00
2023-04-15T20:32:35.244Z,9.45
2023-04-15T20:35:03.775Z,9.20
2023-04-15T20:37:33.245Z,8.60
2023-04-15T20:40:00.697Z,9.05
2023-04-15T20:42:28.014Z,10.10
2023-04-15T20:44:54.578Z,9.48
2023-04-15T20:47:21.274Z,10.15
2023-04-15T20:49:48.321Z,9.95
2023-04-15T20:52:15.049Z,8.90
2023-04-15T20:54:42.074Z,8.18
2023-04-15T20:59:36.019Z,8.60
2023-04-15T21:02:02.732Z,8.95
2023-04-15T21:04:29.979Z,8.30
2023-04-15T21:06:56.765Z,9.13
2023-04-15T21:09:24.338Z,9.45
2023-04-15T21:14:22.613Z,9.70
2023-04-15T21:16:49.183Z,10.20
2023-04-15T21:21:43.252Z,9.05
2023-04-15T21:24:11.752Z,10.68
2023-04-15T21:26:38.456Z,9.98
2023-04-15T21:29:06.598Z,10.85
2023-04-15T21:31:35.657Z,10.30
2023-04-15T21:34:02.194Z,9.38
2023-04-15T21:36:28.851Z,9.15
2023-04-15T21:38:55.985Z,10.48
2023-04-15T21:41:23.438Z,9.38
2023-04-15T21:43:50.267Z,10.45
2023-04-15T21:46:21.985Z,10.93
2023-04-15T21:48:51.468Z,10.57
2023-04-15T21:51:18.466Z,10.93
2023-04-15T21:53:46.584Z,10.60
2023-04-15T21:56:14.199Z,10.07
2023-04-15T21:58:40.841Z,9.35
2023-04-15T22:01:07.995Z,8.82
2023-04-15T22:03:37.400Z,9.50
2023-04-15T22:06:05.383Z,9.55
2023-04-15T22:08:38.668Z,9.05
2023-04-15T22:11:09.110Z,9.40
2023-04-15T22:13:39.106Z,9.00
2023-04-15T22:16:07.063Z,8.98
2023-04-15T22:18:34.705Z,8.40
2023-04-15T22:23:28.861Z,8.45
2023-04-15T22:25:55.589Z,9.32
2023-04-15T22:28:22.203Z,9.95
2023-04-15T22:30:48.776Z,10.15
2023-04-15T22:33:15.504Z,9.52
2023-04-15T22:35:42.073Z,10.23
2023-04-15T22:38:08.663Z,10.95
2023-04-15T22:40:35.338Z,9.88
2023-04-15T22:43:02.160Z,10.05
2023-04-15T22:45:29.472Z,9.23
2023-04-15T22:50:23.131Z,8.32
2023-04-15T22:55:17.169Z,8.68
2023-04-15T22:57:44.422Z,7.82
2023-04-15T23:00:11.389Z,10.30
2023-04-15T23:02:38.474Z,9.90
2023-04-15T23:07:40.108Z,8.85
2023-04-15T23:10:08.683Z,10.20
2023-04-15T23:12:35.527Z,9.38
2023-04-15T23:15:03.432Z,10.40
2023-04-15T23:17:30.699Z,9.90
2023-04-15T23:19:57.285Z,10.73
2023-04-15T23:22:24.858Z,9.93
2023-04-15T23:24:51.465Z,9.65
2023-04-15T23:27:19.068Z,10.25
2023-04-15T23:29:46.012Z,9.27
2023-04-15T23:32:12.666Z,9.63
2023-04-15T23:34:39.228Z,9.85
2023-04-15T23:37:05.846Z,9.80
2023-04-15T23:39:32.475Z,10.18
2023-04-15T23:41:59.604Z,9.93
2023-04-15T23:44:27.596Z,9.10
2023-04-15T23:46:54.109Z,9.18
2023-04-15T23:49:20.803Z,9.70
2023-04-15T23:51:47.575Z,10.15
2023-04-15T23:54:14.842Z,10.10
2023-04-15T23:56:41.385Z,10.23
2023-04-15T23:59:09.231Z,10.30
